createdAt,value
2019-04-05T00:00:04.412Z,14.97
2019-04-05T00:02:34.989Z,14.80
2019-04-05T00:05:05.054Z,13.97
2019-04-05T00:07:34.057Z,14.63
2019-04-05T00:10:03.539Z,14.73
2019-04-05T00:12:33.512Z,16.97
2019-04-05T00:15:14.694Z,16.70
2019-04-05T00:17:33.348Z,18.77
2019-04-05T00:20:02.393Z,17.67
2019-04-05T00:22:31.318Z,18.00
2019-04-05T00:25:00.217Z,17.00
2019-04-05T00:27:29.187Z,17.77
2019-04-05T00:29:58.194Z,17.33
2019-04-05T00:32:27.169Z,17.50
2019-04-05T00:34:56.076Z,18.37
2019-04-05T00:37:26.075Z,17.50
2019-04-05T00:39:54.976Z,17.87
2019-04-05T00:42:23.894Z,19.17
2019-04-05T00:44:52.897Z,19.33
2019-04-05T00:47:21.795Z,19.27
2019-04-05T00:49:50.687Z,19.07
2019-04-05T00:52:19.630Z,23.37
2019-04-05T00:54:48.533Z,21.73
2019-04-05T00:57:17.434Z,22.13
2019-04-05T00:59:46.532Z,25.80
2019-04-05T01:02:16.394Z,21.17
2019-04-05T01:04:46.268Z,25.47
2019-04-05T01:07:15.268Z,26.30
2019-04-05T01:09:44.173Z,23.40
2019-04-05T01:12:13.456Z,26.13
2019-04-05T01:14:43.606Z,26.10
2019-04-05T01:17:24.205Z,26.97
2019-04-05T01:19:44.704Z,26.43
2019-04-05T01:22:14.173Z,25.87
2019-04-05T01:24:43.149Z,28.70
2019-04-05T01:27:12.840Z,25.73
2019-04-05T01:29:42.109Z,25.07
2019-04-05T01:32:11.075Z,23.40
2019-04-05T01:34:39.999Z,25.47
2019-04-05T01:37:10.051Z,24.40
2019-04-05T01:39:38.950Z,24.83
2019-04-05T01:42:07.905Z,26.73
2019-04-05T01:44:37.680Z,27.50
2019-04-05T01:47:06.572Z,27.37
2019-04-05T01:49:35.544Z,28.67
2019-04-05T01:52:04.431Z,28.30
2019-04-05T01:54:52.677Z,28.67
2019-04-05T01:57:21.597Z,27.87
2019-04-05T01:59:50.592Z,28.47
2019-04-05T02:02:19.658Z,32.20
2019-04-05T02:04:48.629Z,28.13
2019-04-05T02:07:17.620Z,31.70
2019-04-05T02:09:46.582Z,31.03
2019-04-05T02:12:15.649Z,28.17
2019-04-05T02:14:44.633Z,30.77
2019-04-05T02:17:13.607Z,30.87
2019-04-05T02:19:42.577Z,30.77
2019-04-05T02:22:11.576Z,29.07
2019-04-05T02:24:40.474Z,31.60
2019-04-05T02:27:09.372Z,31.83
2019-04-05T02:29:38.304Z,32.70
2019-04-05T02:32:07.271Z,32.90
2019-04-05T02:34:36.244Z,33.80
2019-04-05T02:37:05.350Z,36.10
2019-04-05T02:39:34.259Z,35.80
2019-04-05T02:42:03.352Z,34.53
2019-04-05T02:44:32.655Z,34.70
2019-04-05T02:47:01.812Z,37.57
2019-04-05T02:49:31.380Z,34.20
2019-04-05T02:52:00.986Z,32.00
2019-04-05T02:54:31.020Z,34.00
2019-04-05T02:57:01.065Z,38.60
2019-04-05T02:59:31.849Z,37.00
2019-04-05T03:02:01.136Z,35.97
2019-04-05T03:04:30.099Z,36.77
2019-04-05T03:06:59.068Z,37.27
2019-04-05T03:09:28.179Z,40.77
2019-04-05T03:11:57.545Z,35.10
2019-04-05T03:14:26.816Z,34.50
2019-04-05T03:16:55.815Z,35.13
2019-04-05T03:19:26.253Z,38.33
2019-04-05T03:21:56.709Z,38.60
2019-04-05T03:24:27.136Z,37.07
2019-04-05T03:26:57.614Z,36.10
2019-04-05T03:29:26.894Z,35.80
2019-04-05T03:31:55.864Z,33.07
2019-04-05T03:34:24.935Z,38.63
2019-04-05T03:36:55.433Z,37.83
2019-04-05T03:39:24.859Z,36.43
2019-04-05T03:41:54.686Z,37.20
2019-04-05T03:44:23.638Z,35.67
2019-04-05T03:46:56.831Z,37.73
2019-04-05T03:49:24.636Z,38.23
2019-04-05T03:51:53.593Z,39.67
2019-04-05T03:54:22.856Z,37.63
2019-04-05T03:56:51.788Z,37.50
2019-04-05T03:59:20.862Z,38.90
2019-04-05T04:01:49.934Z,36.67
2019-04-05T04:04:19.137Z,35.07
2019-04-05T04:06:48.203Z,35.43
2019-04-05T04:09:17.267Z,34.83
2019-04-05T04:11:46.459Z,34.20
2019-04-05T04:14:15.458Z,35.57
2019-04-05T04:16:44.429Z,36.40
2019-04-05T04:19:13.511Z,34.93
2019-04-05T04:21:47.129Z,35.10
2019-04-05T04:24:16.287Z,35.13
2019-04-05T04:26:45.179Z,37.57
2019-04-05T04:29:14.278Z,37.50
2019-04-05T04:31:43.550Z,35.83
2019-04-05T04:34:12.522Z,38.07
2019-04-05T04:36:41.585Z,39.47
2019-04-05T04:39:10.590Z,37.63
2019-04-05T04:41:39.653Z,36.23
2019-04-05T04:44:08.579Z,35.97
2019-04-05T04:46:37.537Z,37.87
2019-04-05T04:49:06.450Z,37.80
2019-04-05T04:51:35.821Z,35.23
2019-04-05T04:54:04.901Z,33.17
2019-04-05T04:56:33.868Z,33.53
2019-04-05T04:59:02.782Z,34.23
2019-04-05T05:01:31.760Z,33.83
2019-04-05T05:04:00.701Z,34.47
2019-04-05T05:06:29.782Z,33.93
2019-04-05T05:08:58.800Z,37.13
2019-04-05T05:11:27.992Z,35.80
2019-04-05T05:13:57.213Z,33.13
2019-04-05T05:16:26.278Z,32.23
2019-04-05T05:18:55.206Z,30.27
2019-04-05T05:21:24.377Z,29.57
2019-04-05T05:23:53.448Z,30.43
2019-04-05T05:26:22.463Z,35.43
2019-04-05T05:28:51.445Z,30.47
2019-04-05T05:31:20.417Z,32.70
2019-04-05T05:33:49.386Z,29.63
2019-04-05T05:36:18.755Z,34.37
2019-04-05T05:38:47.836Z,39.87
2019-04-05T05:41:16.797Z,35.40
2019-04-05T05:43:45.746Z,37.80
2019-04-05T05:46:14.689Z,38.97
2019-04-05T05:48:44.157Z,35.83
2019-04-05T05:51:13.061Z,36.47
2019-04-05T05:53:42.049Z,39.83
2019-04-05T05:56:10.948Z,37.70
2019-04-05T05:58:39.912Z,56.47
2019-04-05T06:01:08.828Z,56.37
2019-04-05T06:03:37.738Z,58.23
2019-04-05T06:06:06.707Z,57.73
2019-04-05T06:08:35.643Z,59.83
2019-04-05T06:11:04.611Z,61.43
2019-04-05T06:13:33.575Z,61.10
2019-04-05T06:16:02.581Z,58.17
2019-04-05T06:18:31.476Z,59.33
2019-04-05T06:21:03.335Z,60.67
2019-04-05T06:23:33.870Z,54.80
2019-04-05T06:26:01.970Z,50.17
2019-04-05T06:28:30.874Z,44.57
2019-04-05T06:30:59.917Z,45.37
2019-04-05T06:33:31.700Z,49.97
2019-04-05T06:35:59.416Z,45.13
2019-04-05T06:38:28.366Z,46.10
2019-04-05T06:40:57.338Z,41.27
2019-04-05T06:43:26.238Z,42.57
2019-04-05T06:45:55.200Z,43.03
2019-04-05T06:48:24.265Z,40.77
2019-04-05T06:50:53.162Z,40.33
2019-04-05T06:53:22.159Z,39.37
2019-04-05T06:55:51.064Z,38.93
2019-04-05T06:58:20.254Z,37.83
2019-04-05T07:00:56.991Z,38.07
2019-04-05T07:03:20.189Z,38.70
2019-04-05T07:05:49.153Z,37.17
2019-04-05T07:08:18.529Z,35.50
2019-04-05T07:10:47.616Z,35.80
2019-04-05T07:13:16.509Z,38.67
2019-04-05T07:15:45.464Z,37.60
2019-04-05T07:18:14.441Z,38.73
2019-04-05T07:20:43.338Z,38.30
2019-04-05T07:23:13.342Z,40.00
2019-04-05T07:25:43.209Z,33.53
2019-04-05T07:28:12.197Z,32.13
2019-04-05T07:30:41.124Z,31.87
2019-04-05T07:33:11.661Z,33.07
2019-04-05T07:35:40.555Z,31.13
2019-04-05T07:38:09.874Z,31.10
2019-04-05T07:40:38.940Z,30.23
2019-04-05T07:43:07.875Z,29.80
2019-04-05T07:45:36.777Z,25.10
2019-04-05T07:48:05.797Z,28.80
2019-04-05T07:50:34.907Z,27.83
2019-04-05T07:53:03.877Z,29.83
2019-04-05T07:55:32.898Z,27.40
2019-04-05T07:58:01.823Z,26.60
2019-04-05T08:00:44.321Z,27.70
2019-04-05T08:03:13.394Z,29.20
2019-04-05T08:05:42.378Z,24.23
2019-04-05T08:08:12.810Z,26.07
2019-04-05T08:10:42.733Z,25.13
2019-04-05T08:13:12.705Z,24.37
2019-04-05T08:15:41.966Z,24.57
2019-04-05T08:18:10.974Z,23.30
2019-04-05T08:20:39.879Z,21.07
2019-04-05T08:23:08.851Z,24.43
2019-04-05T08:25:37.848Z,23.00
2019-04-05T08:28:06.890Z,19.80
2019-04-05T08:30:35.963Z,18.33
2019-04-05T08:33:04.890Z,17.13
2019-04-05T08:35:33.790Z,17.07
2019-04-05T08:38:02.686Z,17.77
2019-04-05T08:40:31.698Z,16.50
2019-04-05T08:43:01.739Z,15.20
2019-04-05T08:45:30.631Z,15.50
2019-04-05T08:47:59.543Z,13.47
2019-04-05T08:50:28.446Z,12.93
2019-04-05T08:52:57.364Z,13.83
2019-04-05T08:55:27.341Z,12.50
2019-04-05T08:57:56.230Z,12.57
2019-04-05T09:00:26.511Z,11.83
2019-04-05T09:02:55.579Z,13.00
2019-04-05T09:05:24.680Z,13.53
2019-04-05T09:07:53.624Z,13.13
2019-04-05T09:10:22.679Z,13.47
2019-04-05T09:12:51.566Z,14.23
2019-04-05T09:15:20.511Z,14.07
2019-04-05T09:17:49.418Z,15.43
2019-04-05T09:20:18.311Z,14.60
2019-04-05T09:22:47.308Z,12.00
2019-04-05T09:25:16.201Z,15.47
2019-04-05T09:27:45.101Z,20.17
2019-04-05T09:30:14.105Z,15.10
2019-04-05T09:32:43.068Z,18.53
2019-04-05T09:35:11.965Z,12.80
2019-04-05T09:37:40.973Z,12.67
2019-04-05T09:40:09.873Z,10.20
2019-04-05T09:42:38.828Z,10.83
2019-04-05T09:45:07.891Z,9.47
2019-04-05T09:47:36.810Z,10.57
2019-04-05T09:50:06.173Z,10.73
2019-04-05T09:52:35.169Z,9.70
2019-04-05T09:55:05.429Z,8.83
2019-04-05T09:57:34.322Z,9.90
2019-04-05T10:00:05.164Z,9.83
2019-04-05T10:02:35.032Z,11.27
2019-04-05T10:05:04.910Z,10.47
2019-04-05T10:07:33.872Z,8.83
2019-04-05T10:10:02.869Z,8.93
2019-04-05T10:12:32.006Z,9.77
2019-04-05T10:15:00.893Z,10.70
2019-04-05T10:17:29.925Z,10.27
2019-04-05T10:19:58.915Z,8.57
2019-04-05T10:22:27.812Z,8.83
2019-04-05T10:24:56.746Z,7.73
2019-04-05T10:27:25.654Z,10.00
2019-04-05T10:29:54.629Z,7.73
2019-04-05T10:32:23.567Z,11.10
2019-04-05T10:34:52.540Z,8.53
2019-04-05T10:37:21.451Z,8.10
2019-04-05T10:39:50.433Z,7.83
2019-04-05T10:42:26.963Z,8.83
2019-04-05T10:44:55.897Z,9.77
2019-04-05T10:47:24.908Z,9.27
2019-04-05T10:50:02.927Z,7.77
2019-04-05T10:52:24.492Z,7.67
2019-04-05T10:54:53.444Z,7.17
2019-04-05T10:57:22.416Z,8.00
2019-04-05T10:59:51.473Z,8.33
2019-04-05T11:02:20.369Z,6.77
2019-04-05T11:04:49.337Z,7.53
2019-04-05T11:07:18.248Z,7.97
2019-04-05T11:09:47.135Z,6.00
2019-04-05T11:12:16.033Z,6.63
2019-04-05T11:14:45.101Z,5.73
2019-04-05T11:17:13.984Z,7.13
2019-04-05T11:19:42.949Z,5.97
2019-04-05T11:22:11.866Z,5.90
2019-04-05T11:24:40.821Z,7.47
2019-04-05T11:27:09.800Z,5.43
2019-04-05T11:29:38.729Z,6.20
2019-04-05T11:32:07.862Z,6.17
2019-04-05T11:34:37.732Z,6.40
2019-04-05T11:37:06.777Z,6.63
2019-04-05T11:39:35.733Z,5.67
2019-04-05T11:42:04.695Z,5.60
2019-04-05T11:44:33.958Z,6.20
2019-04-05T11:47:03.688Z,6.20
2019-04-05T11:49:34.455Z,5.53
2019-04-05T11:52:03.422Z,6.83
2019-04-05T11:54:32.371Z,6.27
2019-04-05T11:57:01.260Z,6.63
2019-04-05T11:59:30.188Z,5.53
2019-04-05T12:02:00.720Z,6.43
2019-04-05T12:04:29.605Z,5.97
2019-04-05T12:06:58.528Z,6.30
2019-04-05T12:09:27.405Z,6.43
2019-04-05T12:11:56.293Z,5.77
2019-04-05T12:14:30.521Z,5.27
2019-04-05T12:16:55.880Z,6.33
2019-04-05T12:19:24.759Z,6.17
2019-04-05T12:21:53.687Z,8.27
2019-04-05T12:24:22.571Z,6.47
2019-04-05T12:26:51.529Z,6.83
2019-04-05T12:29:20.424Z,5.83
2019-04-05T12:31:49.357Z,3.90
2019-04-05T12:34:21.538Z,5.03
2019-04-05T12:36:50.536Z,4.67
2019-04-05T12:39:19.456Z,6.90
2019-04-05T12:41:48.341Z,4.77
2019-04-05T12:44:17.239Z,4.50
2019-04-05T12:46:46.356Z,4.50
2019-04-05T12:49:15.408Z,4.97
2019-04-05T12:51:45.514Z,4.63
2019-04-05T12:54:15.089Z,3.90
2019-04-05T12:56:43.986Z,3.80
2019-04-05T12:59:12.873Z,4.90
2019-04-05T13:01:43.575Z,2.63
2019-04-05T13:04:13.466Z,3.13
2019-04-05T13:06:42.499Z,4.30
2019-04-05T13:09:13.211Z,3.17
2019-04-05T13:11:42.167Z,3.00
2019-04-05T13:14:11.067Z,3.37
2019-04-05T13:16:39.978Z,4.23
2019-04-05T13:19:08.873Z,10.00
2019-04-05T13:21:37.769Z,3.73
2019-04-05T13:24:09.384Z,4.70
2019-04-05T13:26:37.356Z,3.90
2019-04-05T13:29:06.260Z,3.50
2019-04-05T13:31:35.223Z,3.77
2019-04-05T13:34:05.935Z,4.87
2019-04-05T13:36:34.894Z,3.27
2019-04-05T13:39:05.457Z,7.27
2019-04-05T13:41:34.517Z,3.67
2019-04-05T13:44:03.554Z,3.90
2019-04-05T13:46:32.500Z,3.87
2019-04-05T13:49:01.417Z,5.17
2019-04-05T13:51:31.961Z,3.60
2019-04-05T13:54:01.072Z,3.73
2019-04-05T13:56:30.053Z,3.80
2019-04-05T13:58:58.946Z,3.93
2019-04-05T14:01:27.877Z,4.13
2019-04-05T14:03:56.794Z,4.13
2019-04-05T14:06:25.744Z,4.40
2019-04-05T14:08:54.649Z,4.17
2019-04-05T14:11:25.960Z,3.57
2019-04-05T14:13:54.166Z,4.30
2019-04-05T14:16:23.053Z,5.60
2019-04-05T14:18:51.997Z,4.30
2019-04-05T14:21:22.406Z,4.00
2019-04-05T14:23:53.342Z,4.30
2019-04-05T14:26:22.189Z,5.57
2019-04-05T14:28:52.959Z,4.00
2019-04-05T14:31:21.735Z,6.33
2019-04-05T14:33:53.968Z,4.70
2019-04-05T14:36:23.075Z,6.53
2019-04-05T14:38:51.864Z,4.53
2019-04-05T14:41:20.794Z,5.00
2019-04-05T14:43:49.720Z,5.47
2019-04-05T14:46:18.600Z,6.97
2019-04-05T14:48:47.493Z,5.90
2019-04-05T14:51:16.424Z,7.83
2019-04-05T14:53:45.384Z,5.10
2019-04-05T14:56:14.285Z,4.10
2019-04-05T14:58:43.294Z,5.53
2019-04-05T15:01:12.344Z,7.97
2019-04-05T15:03:41.377Z,5.70
2019-04-05T15:06:10.339Z,6.00
2019-04-05T15:08:39.235Z,4.20
2019-04-05T15:11:11.082Z,7.07
2019-04-05T15:13:39.732Z,5.67
2019-04-05T15:16:08.641Z,4.43
2019-04-05T15:18:37.567Z,4.00
2019-04-05T15:21:06.671Z,4.60
2019-04-05T15:23:35.684Z,5.23
2019-04-05T15:26:04.685Z,4.90
2019-04-05T15:28:33.581Z,7.27
2019-04-05T15:31:02.470Z,5.60
2019-04-05T15:33:31.515Z,5.20
2019-04-05T15:36:02.932Z,5.73
2019-04-05T15:38:31.718Z,5.80
2019-04-05T15:41:01.453Z,5.67
2019-04-05T15:43:30.514Z,5.20
2019-04-05T15:45:59.399Z,5.20
2019-04-05T15:48:28.330Z,8.73
2019-04-05T15:50:59.279Z,6.80
2019-04-05T15:53:31.563Z,6.10
2019-04-05T15:55:58.539Z,6.00
2019-04-05T15:58:27.438Z,5.97
2019-04-05T16:00:56.408Z,6.27
2019-04-05T16:03:25.339Z,5.90
2019-04-05T16:05:54.298Z,5.20
2019-04-05T16:08:23.432Z,5.33
2019-04-05T16:10:52.628Z,8.70
2019-04-05T16:13:21.589Z,4.33
2019-04-05T16:15:50.480Z,5.00
2019-04-05T16:18:19.484Z,5.00
2019-04-05T16:20:48.372Z,4.90
2019-04-05T16:23:17.402Z,5.20
2019-04-05T16:25:46.413Z,5.30
2019-04-05T16:28:15.307Z,4.73
2019-04-05T16:30:44.262Z,5.53
2019-04-05T16:33:14.275Z,4.27
2019-04-05T16:35:43.766Z,4.33
2019-04-05T16:38:12.713Z,4.77
2019-04-05T16:40:43.003Z,4.73
2019-04-05T16:43:11.908Z,3.80
2019-04-05T16:45:40.972Z,4.37
2019-04-05T16:48:23.168Z,3.50
2019-04-05T16:50:52.150Z,3.33
2019-04-05T16:53:21.037Z,4.47
2019-04-05T16:55:49.941Z,5.40
2019-04-05T16:58:18.826Z,4.07
2019-04-05T17:00:47.820Z,3.67
2019-04-05T17:03:16.712Z,4.37
2019-04-05T17:05:46.537Z,3.33
2019-04-05T17:08:15.555Z,4.03
2019-04-05T17:10:45.511Z,3.60
2019-04-05T17:13:14.470Z,3.83
2019-04-05T17:15:43.464Z,12.60
2019-04-05T17:18:12.426Z,4.73
2019-04-05T17:20:41.312Z,3.57
2019-04-05T17:23:10.216Z,3.17
2019-04-05T17:25:39.192Z,3.73
2019-04-05T17:28:08.316Z,5.43
2019-04-05T17:30:37.282Z,2.80
2019-04-05T17:33:06.332Z,2.87
2019-04-05T17:35:35.283Z,7.50
2019-04-05T17:38:04.313Z,3.97
2019-04-05T17:40:33.270Z,3.37
2019-04-05T17:43:02.226Z,2.60
2019-04-05T17:45:31.197Z,5.10
2019-04-05T17:48:00.153Z,2.83
2019-04-05T17:50:31.406Z,2.73
2019-04-05T17:53:11.278Z,2.93
2019-04-05T17:55:31.362Z,2.63
2019-04-05T17:58:00.444Z,2.97
2019-04-05T18:00:29.956Z,4.17
2019-04-05T18:02:58.935Z,3.33
2019-04-05T18:05:27.854Z,2.67
2019-04-05T18:07:56.757Z,3.37
2019-04-05T18:10:25.715Z,2.67
2019-04-05T18:12:54.704Z,2.87
2019-04-05T18:15:23.696Z,3.37
2019-04-05T18:17:52.637Z,4.27
2019-04-05T18:20:21.580Z,2.53
2019-04-05T18:22:50.552Z,5.80
2019-04-05T18:25:19.522Z,3.00
2019-04-05T18:27:48.436Z,3.10
2019-04-05T18:30:17.389Z,3.20
2019-04-05T18:32:46.281Z,4.37
2019-04-05T18:35:15.284Z,2.80
2019-04-05T18:37:44.239Z,5.23
2019-04-05T18:40:13.320Z,4.43
2019-04-05T18:42:42.345Z,3.63
2019-04-05T18:45:11.304Z,5.60
2019-04-05T18:47:40.203Z,3.00
2019-04-05T18:50:09.291Z,2.57
2019-04-05T18:52:38.247Z,3.23
2019-04-05T18:55:07.325Z,3.30
2019-04-05T18:57:36.236Z,2.70
2019-04-05T19:00:06.309Z,3.43
2019-04-05T19:02:35.438Z,3.30
2019-04-05T19:05:07.304Z,3.90
2019-04-05T19:07:36.196Z,5.33
2019-04-05T19:10:06.470Z,4.97
2019-04-05T19:12:35.606Z,3.40
2019-04-05T19:15:08.136Z,3.20
2019-04-05T19:17:37.115Z,3.80
2019-04-05T19:20:06.268Z,3.90
2019-04-05T19:22:35.183Z,3.80
2019-04-05T19:25:07.106Z,3.83
2019-04-05T19:27:36.168Z,5.50
2019-04-05T19:50:11.555Z,3.83
2019-04-05T19:52:40.446Z,5.50
2019-04-05T19:55:09.412Z,4.70
2019-04-05T19:57:38.426Z,4.40
2019-04-05T20:00:07.485Z,6.57
2019-04-05T20:02:36.516Z,4.93
2019-04-05T20:05:07.020Z,4.87
2019-04-05T20:07:36.084Z,4.53
2019-04-05T20:10:05.415Z,5.43
2019-04-05T20:12:34.408Z,4.87
2019-04-05T20:15:04.234Z,6.27
2019-04-05T20:17:33.661Z,5.17
2019-04-05T20:20:02.889Z,3.80
2019-04-05T20:22:31.841Z,4.93
2019-04-05T20:25:00.824Z,7.27
2019-04-05T20:27:29.797Z,6.37
2019-04-05T20:29:58.752Z,5.63
2019-04-05T20:32:27.753Z,4.80
2019-04-05T20:34:57.710Z,6.50
2019-04-05T20:37:26.619Z,6.63
2019-04-05T20:39:55.615Z,5.10
2019-04-05T20:42:24.583Z,5.13
2019-04-05T20:44:53.465Z,5.60
2019-04-05T20:47:22.405Z,5.40
2019-04-05T20:49:51.297Z,5.10
2019-04-05T20:52:20.196Z,4.77
2019-04-05T20:54:49.114Z,4.90
2019-04-05T20:57:18.001Z,5.17
2019-04-05T20:59:47.030Z,5.30
2019-04-05T21:02:15.964Z,4.87
2019-04-05T21:04:44.924Z,4.93
2019-04-05T21:07:13.821Z,4.87
2019-04-05T21:09:42.785Z,5.47
2019-04-05T21:12:11.871Z,5.17
2019-04-05T21:14:40.760Z,5.53
2019-04-05T21:17:09.660Z,7.27
2019-04-05T21:19:38.560Z,6.57
2019-04-05T21:22:07.458Z,6.70
2019-04-05T21:24:36.601Z,5.70
2019-04-05T21:27:05.760Z,5.57
2019-04-05T21:29:34.928Z,4.67
2019-04-05T21:32:04.411Z,6.27
2019-04-05T21:34:33.465Z,5.93
2019-04-05T21:37:02.384Z,5.23
2019-04-05T21:39:31.432Z,5.60
2019-04-05T21:42:00.485Z,5.87
2019-04-05T21:44:30.678Z,6.47
2019-04-05T21:46:59.808Z,8.60
2019-04-05T21:49:28.874Z,6.53
2019-04-05T21:51:57.937Z,6.33
2019-04-05T21:54:26.969Z,5.63
2019-04-05T21:56:56.037Z,6.37
2019-04-05T21:59:25.166Z,9.17
2019-04-05T22:01:54.450Z,6.07
2019-04-05T22:04:23.590Z,6.67
2019-04-05T22:06:52.609Z,6.50
2019-04-05T22:09:21.685Z,6.70
2019-04-05T22:11:50.680Z,6.90
2019-04-05T22:14:19.635Z,6.70
2019-04-05T22:16:48.613Z,7.37
2019-04-05T22:19:17.541Z,6.07
2019-04-05T22:21:46.568Z,7.60
2019-04-05T22:24:15.658Z,6.60
2019-04-05T22:26:44.745Z,7.37
2019-04-05T22:29:13.737Z,7.67
2019-04-05T22:31:42.645Z,8.03
2019-04-05T22:34:11.523Z,7.60
2019-04-05T22:36:40.458Z,5.53
2019-04-05T22:39:09.348Z,7.80
2019-04-05T22:41:38.310Z,6.27
2019-04-05T22:44:07.298Z,7.53
2019-04-05T22:46:36.258Z,7.47
2019-04-05T22:49:06.123Z,7.33
2019-04-05T22:51:35.021Z,8.30
2019-04-05T22:54:03.984Z,6.50
2019-04-05T22:56:32.887Z,7.70
2019-04-05T22:59:01.786Z,7.83
2019-04-05T23:01:30.672Z,7.83
2019-04-05T23:03:59.722Z,7.33
2019-04-05T23:06:28.649Z,8.33
2019-04-05T23:08:57.545Z,10.70
2019-04-05T23:11:26.432Z,9.17
2019-04-05T23:13:56.424Z,7.90
2019-04-05T23:16:25.310Z,9.40
2019-04-05T23:18:54.201Z,6.93
2019-04-05T23:21:23.100Z,6.63
2019-04-05T23:23:52.027Z,8.40
2019-04-05T23:26:20.937Z,7.17
2019-04-05T23:28:49.830Z,8.70
2019-04-05T23:31:18.758Z,7.80
2019-04-05T23:33:47.661Z,8.57
2019-04-05T23:36:16.553Z,9.20
2019-04-05T23:38:45.465Z,9.90
2019-04-05T23:41:14.358Z,11.93
2019-04-05T23:43:43.267Z,12.47
2019-04-05T23:46:12.171Z,9.57
2019-04-05T23:48:41.063Z,7.93
2019-04-05T23:51:10.172Z,11.30
2019-04-05T23:53:39.057Z,9.13
2019-04-05T23:56:08.026Z,9.73
2019-04-05T23:58:36.954Z,10.47
